Terminal Aerodrome Forecast
Issued by NWS Twin Cities, MN

Home | Current Version | Previous Version | Graphics & Text | Print | Product List | Glossary On
Versions: 1 2 3 4 5 6 7 8 9 10 11 12 13 14 15 16 17 18 19 20 21 22 23 24 25 26 27 28 29 30 31
000
FTUS43 KMPX 181454 AAA
TAFMSP
TAF AMD
KMSP 181454Z 1815/1918 19013KT P6SM OVC110 WS020/18050KT
     FM181600 17016G27KT P6SM OVC080 WS020/19055KT
     FM190000 23007KT P6SM BKN080
     FM190200 30008KT P6SM BKN050
     FM190400 34008KT P6SM BKN030
     FM190800 02010KT 6SM -SN BR OVC015
     FM191400 03011KT 2SM -SN BR OVC008=

USA.gov is the U.S. government's official web portal to all federal, state and local government web resources and services.